createdAt,value
2023-03-30T00:01:02.219Z,12.30
2023-03-30T00:03:29.471Z,12.27
2023-03-30T00:05:57.010Z,12.34
2023-03-30T00:08:30.960Z,12.35
2023-03-30T00:11:06.496Z,12.36
2023-03-30T00:13:35.932Z,12.38
2023-03-30T00:16:04.245Z,12.31
2023-03-30T00:18:31.015Z,12.37
2023-03-30T00:21:02.903Z,12.34
2023-03-30T00:23:30.135Z,12.39
2023-03-30T00:25:56.810Z,12.36
2023-03-30T00:28:25.124Z,12.37
2023-03-30T00:30:53.649Z,12.36
2023-03-30T00:33:30.369Z,12.32
2023-03-30T00:36:00.531Z,12.35
2023-03-30T00:38:27.378Z,12.35
2023-03-30T00:40:56.691Z,12.35
2023-03-30T00:43:24.413Z,12.34
2023-03-30T00:45:51.991Z,12.35
2023-03-30T00:48:29.774Z,12.35
2023-03-30T00:51:04.797Z,12.34
2023-03-30T00:53:41.452Z,12.38
2023-03-30T00:56:10.808Z,12.39
2023-03-30T00:58:39.858Z,12.36
2023-03-30T01:01:10.549Z,12.43
2023-03-30T01:03:46.884Z,12.43
2023-03-30T01:06:18.128Z,12.39
2023-03-30T01:08:45.954Z,12.39
2023-03-30T01:11:12.530Z,12.43
2023-03-30T01:13:44.551Z,12.37
2023-03-30T01:16:36.194Z,12.35
2023-03-30T01:19:39.527Z,12.31
2023-03-30T01:22:26.343Z,12.35
2023-03-30T01:25:23.563Z,12.30
2023-03-30T01:28:18.169Z,12.35
2023-03-30T01:31:18.403Z,12.32
2023-03-30T01:33:54.077Z,12.30
2023-03-30T01:36:32.927Z,12.32
2023-03-30T01:39:11.613Z,12.36
2023-03-30T01:41:56.307Z,12.40
2023-03-30T01:44:31.141Z,12.35
2023-03-30T01:47:16.365Z,12.38
2023-03-30T01:50:08.764Z,12.42
2023-03-30T01:52:37.034Z,12.41
2023-03-30T01:55:13.832Z,12.41
2023-03-30T01:58:00.508Z,12.46
2023-03-30T02:00:28.651Z,12.48
2023-03-30T02:03:06.972Z,12.42
2023-03-30T02:05:35.819Z,12.41
2023-03-30T02:08:08.321Z,12.40
2023-03-30T02:10:36.437Z,12.45
2023-03-30T02:13:05.331Z,12.42
2023-03-30T02:15:38.978Z,12.42
2023-03-30T02:18:05.983Z,12.46
2023-03-30T02:20:33.255Z,12.48
2023-03-30T02:23:01.440Z,12.43
2023-03-30T02:25:28.679Z,12.48
2023-03-30T02:27:56.290Z,12.41
2023-03-30T02:30:22.843Z,12.37
2023-03-30T02:32:53.965Z,12.34
2023-03-30T02:35:54.734Z,12.33
2023-03-30T02:38:37.534Z,12.40
2023-03-30T02:41:17.333Z,12.42
2023-03-30T02:43:59.253Z,12.40
2023-03-30T02:46:40.941Z,12.42
2023-03-30T02:49:46.855Z,12.45
2023-03-30T02:52:33.948Z,12.43
2023-03-30T02:55:13.745Z,12.41
2023-03-30T02:57:59.096Z,12.39
2023-03-30T03:00:38.766Z,12.35
2023-03-30T03:03:33.577Z,12.42
2023-03-30T03:06:02.794Z,12.42
2023-03-30T03:08:34.393Z,12.41
2023-03-30T03:11:01.348Z,12.45
2023-03-30T03:13:28.018Z,12.46
2023-03-30T03:15:57.667Z,12.47
2023-03-30T03:18:24.984Z,12.55
2023-03-30T03:20:51.548Z,12.58
2023-03-30T03:23:18.163Z,12.56
2023-03-30T03:25:44.682Z,12.54
2023-03-30T03:28:11.386Z,12.49
2023-03-30T03:30:38.354Z,12.49
2023-03-30T03:33:04.914Z,12.56
2023-03-30T03:35:31.599Z,12.42
2023-03-30T03:37:58.120Z,12.36
2023-03-30T03:40:25.161Z,12.39
2023-03-30T03:42:51.908Z,12.39
2023-03-30T03:45:18.436Z,12.29
2023-03-30T03:47:45.014Z,12.28
2023-03-30T03:50:12.171Z,12.34
2023-03-30T03:52:38.764Z,12.36
2023-03-30T03:55:06.193Z,12.37
2023-03-30T03:57:32.835Z,12.37
2023-03-30T03:59:59.956Z,12.39
2023-03-30T04:02:27.863Z,12.42
2023-03-30T04:04:54.725Z,12.40
2023-03-30T04:07:21.673Z,12.34
2023-03-30T04:09:48.319Z,12.37
2023-03-30T04:12:14.906Z,12.30
2023-03-30T04:14:41.504Z,12.29
2023-03-30T04:17:08.123Z,12.27
2023-03-30T04:19:36.118Z,12.21
2023-03-30T04:22:06.076Z,12.20
2023-03-30T04:24:35.472Z,12.22
2023-03-30T04:27:02.723Z,12.19
2023-03-30T04:29:29.925Z,12.21
2023-03-30T04:31:56.800Z,12.16
2023-03-30T04:34:23.582Z,12.09
2023-03-30T04:36:50.134Z,12.02
2023-03-30T04:39:18.276Z,12.04
2023-03-30T04:41:46.220Z,11.96
2023-03-30T04:44:13.079Z,11.94
2023-03-30T04:46:39.760Z,11.92
2023-03-30T04:49:06.511Z,11.85
2023-03-30T04:51:33.103Z,11.79
2023-03-30T04:53:59.775Z,11.80
2023-03-30T04:56:26.427Z,11.83
2023-03-30T04:58:53.029Z,11.79
2023-03-30T05:01:19.636Z,11.84
2023-03-30T05:03:46.311Z,11.96
2023-03-30T05:06:13.113Z,11.89
2023-03-30T05:08:41.788Z,11.77
2023-03-30T05:11:09.039Z,11.78
2023-03-30T05:13:35.617Z,11.78
2023-03-30T05:16:02.508Z,11.77
2023-03-30T05:18:29.161Z,11.76
2023-03-30T05:20:59.492Z,11.91
2023-03-30T05:23:26.677Z,11.88
2023-03-30T05:25:55.172Z,11.85
2023-03-30T05:28:22.915Z,11.92
2023-03-30T05:30:56.154Z,11.86
2023-03-30T05:33:23.058Z,11.82
2023-03-30T05:35:50.341Z,11.86
2023-03-30T05:38:17.401Z,11.81
2023-03-30T05:40:45.005Z,11.73
2023-03-30T05:43:12.137Z,11.75
2023-03-30T05:45:38.702Z,11.78
2023-03-30T05:48:06.924Z,11.77
2023-03-30T05:50:34.235Z,11.79
2023-03-30T05:53:01.069Z,11.81
2023-03-30T05:55:27.789Z,11.86
2023-03-30T05:57:54.619Z,11.92
2023-03-30T06:00:22.674Z,11.90
2023-03-30T06:02:49.777Z,11.82
2023-03-30T06:05:16.450Z,11.89
2023-03-30T06:07:43.544Z,11.89
2023-03-30T06:10:10.505Z,11.92
2023-03-30T06:12:39.394Z,11.88
2023-03-30T06:15:09.086Z,11.98
2023-03-30T06:17:36.927Z,11.97
2023-03-30T06:20:12.557Z,12.01
2023-03-30T06:22:41.668Z,12.05
2023-03-30T06:25:09.425Z,12.03
2023-03-30T06:27:37.486Z,12.08
2023-03-30T06:30:05.019Z,12.02
2023-03-30T06:32:31.842Z,12.08
2023-03-30T06:34:58.442Z,12.03
2023-03-30T06:37:25.292Z,12.09
2023-03-30T06:39:52.650Z,12.05
2023-03-30T06:42:19.480Z,12.05
2023-03-30T06:44:47.551Z,12.03
2023-03-30T06:47:15.669Z,12.05
2023-03-30T06:49:42.936Z,12.07
2023-03-30T06:52:09.470Z,12.09
2023-03-30T06:54:36.289Z,12.17
2023-03-30T06:57:02.955Z,12.16
2023-03-30T06:59:30.562Z,12.19
2023-03-30T07:01:58.075Z,12.19
2023-03-30T07:04:24.728Z,12.30
2023-03-30T07:06:52.164Z,12.32
2023-03-30T07:09:18.702Z,12.34
2023-03-30T07:11:45.228Z,12.39
2023-03-30T07:14:12.687Z,12.45
2023-03-30T07:16:39.521Z,12.46
2023-03-30T07:19:06.347Z,12.46
2023-03-30T07:21:32.974Z,12.43
2023-03-30T07:24:01.457Z,12.45
2023-03-30T07:26:29.206Z,12.50
2023-03-30T07:28:59.029Z,12.56
2023-03-30T07:31:25.858Z,12.62
2023-03-30T07:33:52.763Z,12.62
2023-03-30T07:36:19.915Z,12.73
2023-03-30T07:38:46.948Z,12.83
2023-03-30T07:41:15.428Z,12.87
2023-03-30T07:43:42.390Z,12.87
2023-03-30T07:46:12.096Z,12.89
2023-03-30T07:48:41.114Z,12.87
2023-03-30T07:51:13.601Z,12.93
2023-03-30T07:53:41.367Z,12.94
2023-03-30T07:56:07.971Z,12.94
2023-03-30T07:58:34.680Z,12.96
2023-03-30T08:01:03.647Z,13.06
2023-03-30T08:03:32.109Z,13.19
2023-03-30T08:06:04.050Z,13.24
2023-03-30T08:08:32.233Z,13.31
2023-03-30T08:10:59.328Z,13.40
2023-03-30T08:13:26.343Z,13.49
2023-03-30T08:15:54.553Z,13.56
2023-03-30T08:18:21.636Z,13.67
2023-03-30T08:20:52.591Z,13.82
2023-03-30T08:23:20.164Z,13.98
2023-03-30T08:25:51.303Z,14.07
2023-03-30T08:28:18.591Z,14.23
2023-03-30T08:30:45.314Z,14.24
2023-03-30T08:33:13.750Z,14.31
2023-03-30T08:35:40.629Z,14.42
2023-03-30T08:38:07.249Z,14.55
2023-03-30T08:40:33.921Z,14.60
2023-03-30T08:43:37.256Z,14.62
2023-03-30T08:46:04.145Z,14.67
2023-03-30T08:48:38.072Z,14.67
2023-03-30T08:51:27.914Z,14.68
2023-03-30T08:54:01.871Z,14.79
2023-03-30T08:56:33.560Z,14.84
2023-03-30T08:59:27.675Z,15.10
2023-03-30T09:01:57.282Z,15.24
2023-03-30T09:04:34.788Z,15.41
2023-03-30T09:07:11.208Z,15.51
2023-03-30T09:09:43.881Z,15.64
2023-03-30T09:12:37.545Z,15.84
2023-03-30T09:15:33.817Z,15.81
2023-03-30T09:18:16.319Z,16.00
2023-03-30T09:20:46.091Z,16.06
2023-03-30T09:23:16.372Z,16.13
2023-03-30T09:25:53.450Z,16.19
2023-03-30T09:28:32.065Z,16.17
2023-03-30T09:30:58.549Z,16.28
2023-03-30T09:33:49.894Z,16.30
2023-03-30T09:36:28.165Z,16.37
2023-03-30T09:38:54.837Z,16.62
2023-03-30T09:41:33.538Z,16.53
2023-03-30T09:44:02.171Z,16.56
2023-03-30T09:46:29.303Z,16.70
2023-03-30T09:49:13.352Z,16.75
2023-03-30T09:52:00.747Z,16.81
2023-03-30T09:54:36.948Z,16.88
2023-03-30T09:57:04.030Z,16.83
2023-03-30T09:59:38.079Z,16.92
2023-03-30T10:02:15.744Z,17.10
2023-03-30T10:04:54.685Z,17.13
2023-03-30T10:07:28.708Z,17.13
2023-03-30T10:09:57.753Z,17.06
2023-03-30T10:12:29.472Z,17.17
2023-03-30T10:15:01.022Z,17.17
2023-03-30T10:17:28.646Z,17.36
2023-03-30T10:20:22.620Z,17.31
2023-03-30T10:23:00.378Z,17.50
2023-03-30T10:25:29.678Z,17.62
2023-03-30T10:28:01.339Z,17.87
2023-03-30T10:30:28.529Z,17.67
2023-03-30T10:33:01.741Z,17.68
2023-03-30T10:35:35.217Z,17.66
2023-03-30T10:38:02.657Z,17.67
2023-03-30T10:40:39.183Z,17.56
2023-03-30T10:43:12.656Z,17.63
2023-03-30T10:45:47.880Z,17.79
2023-03-30T10:48:51.610Z,17.92
2023-03-30T10:51:38.285Z,18.07
2023-03-30T10:54:23.053Z,18.16
2023-03-30T10:56:54.587Z,17.96
2023-03-30T10:59:36.500Z,17.94
2023-03-30T11:02:44.491Z,17.65
2023-03-30T11:05:22.878Z,17.70
2023-03-30T11:08:11.574Z,17.56
2023-03-30T11:10:45.775Z,17.52
2023-03-30T11:13:41.688Z,17.60
2023-03-30T11:16:14.205Z,17.66
2023-03-30T11:18:48.715Z,18.01
2023-03-30T11:21:21.420Z,18.06
2023-03-30T11:23:53.974Z,18.10
2023-03-30T11:26:27.466Z,18.24
2023-03-30T11:29:08.233Z,18.17
2023-03-30T11:32:11.633Z,18.14
2023-03-30T11:35:15.137Z,18.02
2023-03-30T11:38:01.397Z,18.19
2023-03-30T11:40:42.215Z,18.29
2023-03-30T11:43:20.259Z,18.29
2023-03-30T11:45:53.430Z,18.47
2023-03-30T11:48:29.397Z,18.45
2023-03-30T11:51:02.018Z,18.48
2023-03-30T11:53:34.699Z,18.23
2023-03-30T11:56:22.005Z,18.30
2023-03-30T11:59:09.168Z,18.53
2023-03-30T12:01:56.810Z,18.50
2023-03-30T12:04:31.821Z,18.63
2023-03-30T12:07:01.413Z,18.44
2023-03-30T12:09:35.396Z,18.48
2023-03-30T12:12:16.005Z,18.41
2023-03-30T12:15:11.773Z,18.47
2023-03-30T12:17:56.826Z,18.42
2023-03-30T12:20:55.566Z,18.33
2023-03-30T12:23:22.227Z,18.35
2023-03-30T12:26:16.357Z,18.38
2023-03-30T12:29:15.190Z,18.51
2023-03-30T12:31:57.349Z,18.74
2023-03-30T12:34:27.728Z,18.45
2023-03-30T12:36:55.205Z,18.59
2023-03-30T12:39:31.263Z,18.69
2023-03-30T12:42:05.941Z,18.78
2023-03-30T12:44:41.448Z,18.77
2023-03-30T12:47:20.090Z,18.70
2023-03-30T12:49:53.626Z,18.59
2023-03-30T12:52:29.501Z,18.63
2023-03-30T12:55:41.533Z,18.39
2023-03-30T12:58:29.944Z,18.66
2023-03-30T13:01:35.105Z,18.80
2023-03-30T13:04:05.233Z,18.67
2023-03-30T13:06:35.986Z,18.65
2023-03-30T13:09:08.087Z,18.67
2023-03-30T13:11:50.091Z,18.97
2023-03-30T13:14:31.954Z,19.29
2023-03-30T13:16:59.091Z,19.20
2023-03-30T13:19:37.225Z,19.01
2023-03-30T13:22:13.072Z,18.96
2023-03-30T13:24:47.064Z,19.07
2023-03-30T13:27:13.608Z,18.77
2023-03-30T13:29:41.920Z,18.65
2023-03-30T13:32:31.982Z,18.55
2023-03-30T13:35:20.765Z,18.24
2023-03-30T13:38:21.532Z,18.32
2023-03-30T13:41:34.635Z,18.48
2023-03-30T13:44:28.910Z,18.59
2023-03-30T13:47:07.550Z,18.63
2023-03-30T13:49:34.139Z,18.77
2023-03-30T13:52:11.429Z,18.95
2023-03-30T13:54:40.725Z,19.23
2023-03-30T13:57:13.234Z,19.21
2023-03-30T13:59:48.194Z,19.33
2023-03-30T14:02:18.005Z,19.28
2023-03-30T14:04:44.833Z,19.28
2023-03-30T14:07:17.057Z,19.21
2023-03-30T14:10:01.812Z,19.02
2023-03-30T14:12:28.466Z,18.80
2023-03-30T14:14:55.068Z,18.90
2023-03-30T14:17:24.355Z,19.05
2023-03-30T14:20:21.756Z,19.05
2023-03-30T14:22:50.568Z,19.14
2023-03-30T14:25:28.240Z,19.10
2023-03-30T14:27:57.282Z,18.99
2023-03-30T14:30:29.856Z,19.04
2023-03-30T14:33:11.437Z,19.16
2023-03-30T14:35:59.699Z,19.19
2023-03-30T14:38:34.698Z,19.30
2023-03-30T14:41:01.396Z,19.24
2023-03-30T14:43:31.466Z,19.40
2023-03-30T14:46:03.326Z,19.28
2023-03-30T14:48:33.633Z,19.14
2023-03-30T14:51:09.716Z,19.24
2023-03-30T14:53:36.777Z,19.12
2023-03-30T14:56:04.789Z,19.15
2023-03-30T14:58:32.692Z,19.17
2023-03-30T15:01:03.696Z,19.07
2023-03-30T15:03:34.699Z,19.27
2023-03-30T15:06:07.068Z,19.33
2023-03-30T15:08:37.805Z,19.43
2023-03-30T15:11:14.415Z,19.50
2023-03-30T15:13:44.798Z,19.59
2023-03-30T15:16:18.693Z,19.50
2023-03-30T15:18:45.412Z,19.62
2023-03-30T15:21:13.617Z,19.76
2023-03-30T15:23:44.752Z,19.58
2023-03-30T15:26:12.495Z,19.55
2023-03-30T15:28:49.063Z,19.40
2023-03-30T15:31:16.504Z,19.46
2023-03-30T15:33:46.561Z,19.49
2023-03-30T15:36:18.640Z,19.44
2023-03-30T15:39:05.560Z,19.46
2023-03-30T15:41:57.937Z,19.62
2023-03-30T15:44:24.712Z,19.77
2023-03-30T15:46:56.222Z,19.89
2023-03-30T15:49:29.552Z,19.85
2023-03-30T15:52:01.765Z,19.80
2023-03-30T15:54:41.144Z,19.78
2023-03-30T15:57:11.241Z,19.82
2023-03-30T15:59:43.563Z,19.53
2023-03-30T16:02:19.283Z,19.56
2023-03-30T16:04:45.941Z,19.49
2023-03-30T16:07:16.863Z,19.39
2023-03-30T16:09:43.515Z,19.30
2023-03-30T16:12:27.677Z,19.23
2023-03-30T16:14:54.681Z,19.31
2023-03-30T16:17:21.324Z,19.29
2023-03-30T16:19:48.179Z,19.32
2023-03-30T16:22:15.956Z,19.32
2023-03-30T16:24:43.359Z,19.50
2023-03-30T16:27:14.998Z,19.35
2023-03-30T16:29:41.678Z,19.39
2023-03-30T16:32:08.383Z,19.55
2023-03-30T16:34:35.028Z,19.55
2023-03-30T16:37:02.055Z,19.58
2023-03-30T16:39:30.580Z,19.73
2023-03-30T16:41:57.199Z,19.69
2023-03-30T16:44:24.798Z,19.59
2023-03-30T16:46:52.245Z,19.59
2023-03-30T16:49:21.889Z,19.37
2023-03-30T16:51:49.376Z,19.29
2023-03-30T16:54:30.566Z,19.30
2023-03-30T16:56:59.005Z,19.18
2023-03-30T16:59:27.495Z,19.19
2023-03-30T17:01:54.046Z,19.07
2023-03-30T17:04:20.791Z,19.10
2023-03-30T17:06:47.774Z,19.12
2023-03-30T17:09:17.257Z,18.99
2023-03-30T17:11:44.956Z,18.99
2023-03-30T17:14:11.805Z,18.90
2023-03-30T17:16:39.152Z,18.81
2023-03-30T17:19:06.334Z,18.81
2023-03-30T17:21:32.893Z,18.90
2023-03-30T17:23:59.445Z,18.91
2023-03-30T17:26:26.218Z,19.03
2023-03-30T17:28:52.904Z,18.99
2023-03-30T17:31:21.610Z,19.04
2023-03-30T17:33:48.722Z,19.00
2023-03-30T17:36:25.964Z,18.98
2023-03-30T17:38:53.034Z,18.96
2023-03-30T17:41:20.679Z,18.92
2023-03-30T17:43:48.321Z,18.91
2023-03-30T17:46:18.641Z,18.82
2023-03-30T17:48:45.819Z,18.80
2023-03-30T17:51:12.368Z,18.69
2023-03-30T17:53:38.970Z,18.62
2023-03-30T17:56:06.401Z,18.59
2023-03-30T17:58:35.921Z,18.50
2023-03-30T18:01:09.755Z,18.47
2023-03-30T18:03:39.159Z,18.32
2023-03-30T18:06:06.503Z,18.20
2023-03-30T18:08:33.131Z,18.13
2023-03-30T18:11:01.211Z,18.04
2023-03-30T18:13:29.578Z,17.98
2023-03-30T18:15:58.585Z,17.92
2023-03-30T18:18:28.120Z,17.89
2023-03-30T18:20:57.682Z,17.83
2023-03-30T18:23:24.311Z,17.75
2023-03-30T18:25:51.404Z,17.71
2023-03-30T18:28:23.137Z,17.73
2023-03-30T18:30:53.142Z,17.67
2023-03-30T18:33:19.855Z,17.59
2023-03-30T18:35:48.518Z,17.51
2023-03-30T18:38:17.967Z,17.47
2023-03-30T18:40:49.294Z,17.42
2023-03-30T18:43:17.093Z,17.34
2023-03-30T18:45:51.309Z,17.29
2023-03-30T18:48:19.515Z,17.25
2023-03-30T18:50:48.521Z,17.19
2023-03-30T18:53:20.342Z,17.11
2023-03-30T18:55:50.516Z,17.06
2023-03-30T18:58:23.301Z,17.02
2023-03-30T19:00:51.783Z,17.02
2023-03-30T19:03:20.157Z,17.02
2023-03-30T19:05:47.613Z,17.02
2023-03-30T19:08:17.147Z,17.10
2023-03-30T19:10:45.287Z,17.05
2023-03-30T19:13:16.553Z,17.02
2023-03-30T19:15:43.788Z,17.09
2023-03-30T19:18:10.861Z,17.20
2023-03-30T19:20:39.932Z,17.21
2023-03-30T19:23:08.219Z,17.20
2023-03-30T19:25:34.829Z,17.11
2023-03-30T19:28:04.215Z,17.03
2023-03-30T19:30:33.648Z,17.00
2023-03-30T19:33:04.596Z,16.95
2023-03-30T19:35:31.836Z,16.99
2023-03-30T19:37:59.021Z,16.96
2023-03-30T19:40:25.818Z,16.86
2023-03-30T19:42:53.219Z,16.79
2023-03-30T19:45:22.918Z,16.78
2023-03-30T19:47:50.714Z,16.68
2023-03-30T19:50:19.393Z,16.65
2023-03-30T19:52:48.648Z,16.69
2023-03-30T19:55:16.105Z,16.56
2023-03-30T19:57:43.024Z,16.45
2023-03-30T20:00:15.323Z,16.42
2023-03-30T20:02:44.891Z,16.38
2023-03-30T20:05:12.997Z,16.30
2023-03-30T20:07:40.537Z,16.25
2023-03-30T20:10:09.430Z,16.18
2023-03-30T20:12:36.174Z,16.14
2023-03-30T20:15:05.737Z,16.05
2023-03-30T20:17:34.204Z,16.09
2023-03-30T20:20:07.225Z,16.10
2023-03-30T20:22:36.172Z,15.97
2023-03-30T20:25:04.124Z,15.90
2023-03-30T20:27:31.081Z,15.87
2023-03-30T20:29:57.607Z,15.93
2023-03-30T20:32:24.297Z,15.84
2023-03-30T20:34:51.030Z,15.81
2023-03-30T20:37:17.709Z,15.82
2023-03-30T20:39:44.260Z,15.81
2023-03-30T20:42:11.001Z,15.76
2023-03-30T20:44:40.757Z,15.73
2023-03-30T20:47:08.937Z,15.69
2023-03-30T20:49:37.877Z,15.68
2023-03-30T20:52:05.116Z,15.62
2023-03-30T20:54:31.716Z,15.53
2023-03-30T20:56:58.337Z,15.51
2023-03-30T20:59:25.512Z,15.56
2023-03-30T21:01:52.263Z,15.52
2023-03-30T21:04:19.912Z,15.50
2023-03-30T21:06:46.960Z,15.52
2023-03-30T21:09:13.527Z,15.52
2023-03-30T21:11:40.489Z,15.47
2023-03-30T21:14:08.695Z,15.50
2023-03-30T21:16:37.398Z,15.46
2023-03-30T21:19:07.570Z,15.49
2023-03-30T21:21:37.110Z,15.45
2023-03-30T21:24:08.814Z,15.36
2023-03-30T21:26:35.772Z,15.38
2023-03-30T21:29:02.428Z,15.35
2023-03-30T21:31:29.300Z,15.33
2023-03-30T21:33:56.098Z,15.32
2023-03-30T21:36:23.518Z,15.27
2023-03-30T21:38:50.512Z,15.24
2023-03-30T21:41:20.913Z,15.25
2023-03-30T21:43:48.248Z,15.22
2023-03-30T21:46:18.149Z,15.24
2023-03-30T21:48:46.476Z,15.20
2023-03-30T21:51:23.425Z,15.18
2023-03-30T21:53:51.709Z,15.19
2023-03-30T21:56:19.963Z,15.14
2023-03-30T21:58:46.512Z,15.14
2023-03-30T22:01:13.259Z,15.09
2023-03-30T22:03:42.033Z,15.08
2023-03-30T22:06:11.029Z,15.06
2023-03-30T22:08:40.743Z,15.07
2023-03-30T22:11:18.930Z,15.03
2023-03-30T22:13:47.989Z,15.07
2023-03-30T22:16:22.499Z,15.01
2023-03-30T22:18:50.038Z,14.97
2023-03-30T22:21:21.314Z,14.92
2023-03-30T22:23:47.959Z,14.83
2023-03-30T22:26:14.637Z,14.85
2023-03-30T22:28:41.656Z,14.82
2023-03-30T22:31:09.968Z,14.85
2023-03-30T22:33:37.173Z,14.89
2023-03-30T22:36:04.779Z,14.83
2023-03-30T22:38:31.573Z,14.79
2023-03-30T22:41:05.678Z,14.77
2023-03-30T22:43:33.838Z,14.73
2023-03-30T22:46:00.684Z,14.74
2023-03-30T22:48:27.271Z,14.75
2023-03-30T22:50:53.865Z,14.76
2023-03-30T22:53:20.496Z,14.78
2023-03-30T22:55:48.020Z,14.76
2023-03-30T22:58:15.951Z,14.64
2023-03-30T23:00:42.603Z,14.71
2023-03-30T23:03:09.646Z,14.69
2023-03-30T23:05:37.224Z,14.67
2023-03-30T23:08:03.925Z,14.66
2023-03-30T23:10:33.979Z,14.72
2023-03-30T23:13:00.672Z,14.75
2023-03-30T23:15:29.268Z,14.73
2023-03-30T23:17:56.109Z,14.68
2023-03-30T23:20:22.743Z,14.68
2023-03-30T23:22:50.794Z,14.66
2023-03-30T23:25:17.651Z,14.69
2023-03-30T23:27:44.476Z,14.66
2023-03-30T23:30:11.684Z,14.66
2023-03-30T23:32:38.327Z,14.62
2023-03-30T23:35:05.360Z,14.58
2023-03-30T23:37:32.583Z,14.60
2023-03-30T23:40:01.633Z,14.57
2023-03-30T23:42:28.797Z,14.53
2023-03-30T23:44:55.396Z,14.42
2023-03-30T23:47:21.970Z,14.49
2023-03-30T23:49:48.634Z,14.54
2023-03-30T23:52:15.533Z,14.52
2023-03-30T23:54:42.129Z,14.54
2023-03-30T23:57:09.893Z,14.55
2023-03-30T23:59:37.251Z,14.58
